createdAt,value
2019-04-12T00:01:19.685Z,7.30
2019-04-12T00:03:48.200Z,7.30
2019-04-12T00:06:17.131Z,7.20
2019-04-12T00:08:45.933Z,7.20
2019-04-12T00:11:14.382Z,7.20
2019-04-12T00:13:42.829Z,7.10
2019-04-12T00:16:11.911Z,7.00
2019-04-12T00:18:45.231Z,7.00
2019-04-12T00:21:15.483Z,6.90
2019-04-12T00:23:45.692Z,6.80
2019-04-12T00:26:16.012Z,6.60
2019-04-12T00:28:45.445Z,6.50
2019-04-12T00:31:13.922Z,6.60
2019-04-12T00:33:42.648Z,6.60
2019-04-12T00:36:11.609Z,6.60
2019-04-12T00:38:40.072Z,6.50
2019-04-12T00:41:08.799Z,6.40
2019-04-12T00:43:41.482Z,6.20
2019-04-12T00:46:11.606Z,6.10
2019-04-12T00:48:41.714Z,5.90
2019-04-12T00:51:12.310Z,5.90
2019-04-12T00:53:44.263Z,5.90
2019-04-12T00:56:12.051Z,6.00
2019-04-12T00:58:40.778Z,6.00
2019-04-12T01:01:22.746Z,6.00
2019-04-12T01:03:52.942Z,6.10
2019-04-12T01:06:21.460Z,6.10
2019-04-12T01:08:51.880Z,6.10
2019-04-12T01:11:22.050Z,6.10
2019-04-12T01:13:51.559Z,6.10
2019-04-12T01:16:20.386Z,6.00
2019-04-12T01:18:48.833Z,5.90
2019-04-12T01:21:17.838Z,5.90
2019-04-12T01:23:46.324Z,5.90
2019-04-12T01:26:15.367Z,6.00
2019-04-12T01:28:45.930Z,6.00
2019-04-12T01:31:15.107Z,6.10
2019-04-12T01:33:43.540Z,6.20
2019-04-12T01:36:12.025Z,6.30
2019-04-12T01:38:40.774Z,6.30
2019-04-12T01:41:09.566Z,6.30
2019-04-12T01:43:38.296Z,6.30
2019-04-12T01:46:07.010Z,6.30
2019-04-12T01:48:35.710Z,6.20
2019-04-12T01:51:04.416Z,6.10
2019-04-12T01:53:33.221Z,6.10
2019-04-12T01:56:01.990Z,5.90
2019-04-12T01:58:30.729Z,5.90
2019-04-12T02:00:59.558Z,5.80
2019-04-12T02:03:30.572Z,5.80
2019-04-12T02:05:59.388Z,5.70
2019-04-12T02:08:30.424Z,5.70
2019-04-12T02:10:58.944Z,5.60
2019-04-12T02:13:27.812Z,5.60
2019-04-12T02:15:56.592Z,5.60
2019-04-12T02:18:25.072Z,5.50
2019-04-12T02:20:53.915Z,5.50
2019-04-12T02:23:23.084Z,5.50
2019-04-12T02:25:51.712Z,5.50
2019-04-12T02:28:20.549Z,5.50
2019-04-12T02:31:03.177Z,5.50
2019-04-12T02:33:34.280Z,5.50
2019-04-12T02:36:03.063Z,5.50
2019-04-12T02:38:31.892Z,5.50
2019-04-12T02:41:01.301Z,5.60
2019-04-12T02:43:34.479Z,5.60
2019-04-12T02:46:04.190Z,5.60
2019-04-12T02:48:37.412Z,5.50
2019-04-12T02:51:12.310Z,5.40
2019-04-12T02:53:48.191Z,5.40
2019-04-12T02:56:24.415Z,5.40
2019-04-12T02:58:57.225Z,5.40
2019-04-12T03:01:27.274Z,5.40
2019-04-12T03:03:56.518Z,5.30
2019-04-12T03:06:25.354Z,5.30
2019-04-12T03:08:54.358Z,5.40
2019-04-12T03:11:25.163Z,5.50
2019-04-12T03:13:55.614Z,5.40
2019-04-12T03:16:25.224Z,5.40
2019-04-12T03:18:53.730Z,5.40
2019-04-12T03:21:23.870Z,5.50
2019-04-12T03:23:54.328Z,5.50
2019-04-12T03:26:23.465Z,5.40
2019-04-12T03:29:00.947Z,5.40
2019-04-12T03:31:31.944Z,5.30
2019-04-12T03:34:02.584Z,5.30
2019-04-12T03:36:32.563Z,5.30
2019-04-12T03:39:05.522Z,5.40
2019-04-12T03:41:34.803Z,5.40
2019-04-12T03:44:03.821Z,5.50
2019-04-12T03:46:32.439Z,5.60
2019-04-12T03:49:01.217Z,5.60
2019-04-12T03:51:30.578Z,5.60
2019-04-12T03:53:59.284Z,5.60
2019-04-12T03:56:28.474Z,5.50
2019-04-12T03:59:15.552Z,5.50
2019-04-12T04:01:45.504Z,5.50
2019-04-12T04:04:14.202Z,5.60
2019-04-12T04:06:43.049Z,5.60
2019-04-12T04:09:12.076Z,5.60
2019-04-12T04:11:40.738Z,5.50
2019-04-12T04:14:09.326Z,5.50
2019-04-12T04:16:40.720Z,5.50
2019-04-12T04:19:10.722Z,5.50
2019-04-12T04:21:42.407Z,5.50
2019-04-12T04:24:15.719Z,5.60
2019-04-12T04:26:59.638Z,5.50
2019-04-12T04:29:49.270Z,5.50
2019-04-12T04:32:20.905Z,5.50
2019-04-12T04:34:50.134Z,5.50
2019-04-12T04:37:19.071Z,5.40
2019-04-12T04:39:47.735Z,5.50
2019-04-12T04:42:16.613Z,5.40
2019-04-12T04:44:47.017Z,5.40
2019-04-12T04:47:16.427Z,5.40
2019-04-12T04:49:45.256Z,5.40
2019-04-12T04:52:16.473Z,5.40
2019-04-12T04:54:44.893Z,5.50
2019-04-12T04:57:13.885Z,5.50
2019-04-12T04:59:42.393Z,5.50
2019-04-12T05:02:11.206Z,5.50
2019-04-12T05:04:41.431Z,5.50
2019-04-12T05:07:10.480Z,5.50
2019-04-12T05:09:39.280Z,5.50
2019-04-12T05:12:08.066Z,5.50
2019-04-12T05:14:36.966Z,5.50
2019-04-12T05:17:07.071Z,5.60
2019-04-12T05:19:35.536Z,5.60
2019-04-12T05:22:04.463Z,5.60
2019-04-12T05:24:33.405Z,5.60
2019-04-12T05:27:01.946Z,5.60
2019-04-12T05:29:30.468Z,5.60
2019-04-12T05:31:59.263Z,5.60
2019-04-12T05:34:29.576Z,5.50
2019-04-12T05:37:09.373Z,5.60
2019-04-12T05:39:28.822Z,5.60
2019-04-12T05:41:58.880Z,5.70
2019-04-12T05:44:27.335Z,5.80
2019-04-12T05:47:01.761Z,5.70
2019-04-12T05:49:34.944Z,5.80
2019-04-12T05:52:05.024Z,5.80
2019-04-12T05:54:35.221Z,5.80
2019-04-12T05:57:04.920Z,5.80
2019-04-12T05:59:36.411Z,5.80
2019-04-12T06:02:23.518Z,5.80
2019-04-12T06:04:53.442Z,5.80
2019-04-12T06:07:22.422Z,5.90
2019-04-12T06:09:52.648Z,5.90
2019-04-12T06:12:23.001Z,6.00
2019-04-12T06:14:52.089Z,6.00
2019-04-12T06:17:20.937Z,6.00
2019-04-12T06:19:49.902Z,6.10
2019-04-12T06:22:20.382Z,6.10
2019-04-12T06:24:59.722Z,6.20
2019-04-12T06:27:42.657Z,6.30
2019-04-12T06:30:22.334Z,6.40
2019-04-12T06:32:54.250Z,6.50
2019-04-12T06:35:23.037Z,6.60
2019-04-12T06:37:51.842Z,6.70
2019-04-12T06:40:23.140Z,6.80
2019-04-12T06:42:51.809Z,6.90
2019-04-12T06:45:20.305Z,7.00
2019-04-12T06:47:51.560Z,7.10
2019-04-12T06:50:27.916Z,7.10
2019-04-12T06:52:56.650Z,7.20
2019-04-12T06:55:27.120Z,7.20
2019-04-12T06:57:56.026Z,7.30
2019-04-12T07:00:29.355Z,7.30
2019-04-12T07:03:00.264Z,7.30
2019-04-12T07:05:29.607Z,7.40
2019-04-12T07:07:58.400Z,7.50
2019-04-12T07:10:27.152Z,7.60
2019-04-12T07:12:55.934Z,7.70
2019-04-12T07:15:25.518Z,7.70
2019-04-12T07:17:54.440Z,7.80
2019-04-12T07:20:22.873Z,7.80
2019-04-12T07:22:51.647Z,7.90
2019-04-12T07:25:20.672Z,8.10
2019-04-12T07:27:51.576Z,8.30
2019-04-12T07:30:20.396Z,8.40
2019-04-12T07:32:49.301Z,8.50
2019-04-12T07:35:18.057Z,8.60
2019-04-12T07:37:46.857Z,8.70
2019-04-12T07:40:16.872Z,8.80
2019-04-12T07:42:45.393Z,8.90
2019-04-12T07:45:13.998Z,9.00
2019-04-12T07:47:42.521Z,9.10
2019-04-12T07:50:27.454Z,9.30
2019-04-12T07:52:56.015Z,9.50
2019-04-12T07:55:26.355Z,9.80
2019-04-12T07:58:11.737Z,10.20
2019-04-12T08:00:50.995Z,10.30
2019-04-12T08:03:21.561Z,10.20
2019-04-12T08:06:11.040Z,10.10
2019-04-12T08:08:39.935Z,9.90
2019-04-12T08:11:08.457Z,9.90
2019-04-12T08:13:36.904Z,9.90
2019-04-12T08:16:05.446Z,9.70
2019-04-12T08:18:34.608Z,9.40
2019-04-12T08:21:04.954Z,9.20
2019-04-12T08:23:33.486Z,9.30
2019-04-12T08:26:02.183Z,9.50
2019-04-12T08:28:31.009Z,9.90
2019-04-12T08:30:59.821Z,10.10
2019-04-12T08:33:28.276Z,10.10
2019-04-12T08:35:56.955Z,10.30
2019-04-12T08:38:25.765Z,10.40
2019-04-12T08:40:54.537Z,10.70
2019-04-12T08:43:23.321Z,10.50
2019-04-12T08:45:51.791Z,10.20
2019-04-12T08:48:20.229Z,10.00
2019-04-12T08:50:49.033Z,10.20
2019-04-12T08:53:17.812Z,10.40
2019-04-12T08:55:46.605Z,10.40
2019-04-12T08:58:15.474Z,10.20
2019-04-12T09:00:44.299Z,10.10
2019-04-12T09:03:12.763Z,9.80
2019-04-12T09:05:44.104Z,9.60
2019-04-12T09:08:12.696Z,10.10
2019-04-12T09:10:41.632Z,10.50
2019-04-12T09:13:10.561Z,10.50
2019-04-12T09:15:39.069Z,10.30
2019-04-12T09:18:07.867Z,9.90
2019-04-12T09:20:39.556Z,9.80
2019-04-12T09:23:16.473Z,9.60
2019-04-12T09:25:46.852Z,9.50
2019-04-12T09:28:24.406Z,9.40
2019-04-12T09:30:47.336Z,9.30
2019-04-12T09:33:15.880Z,9.30
2019-04-12T09:35:46.944Z,9.30
2019-04-12T09:38:15.066Z,9.30
2019-04-12T09:40:43.886Z,9.30
2019-04-12T09:43:12.385Z,9.30
2019-04-12T09:45:41.219Z,9.30
2019-04-12T09:48:10.037Z,9.30
2019-04-12T09:50:38.799Z,9.40
2019-04-12T09:53:07.493Z,9.50
2019-04-12T09:55:36.285Z,9.50
2019-04-12T09:58:04.771Z,9.50
2019-04-12T10:00:33.350Z,9.50
2019-04-12T10:03:01.811Z,9.50
2019-04-12T10:05:30.715Z,9.40
2019-04-12T10:07:59.407Z,9.50
2019-04-12T10:10:27.852Z,9.50
2019-04-12T10:12:56.678Z,9.40
2019-04-12T10:15:25.539Z,9.40
2019-04-12T10:17:54.354Z,9.40
2019-04-12T10:20:25.378Z,9.50
2019-04-12T10:22:54.166Z,9.60
2019-04-12T10:25:23.047Z,9.70
2019-04-12T10:27:52.684Z,9.80
2019-04-12T10:30:21.844Z,9.90
2019-04-12T10:32:51.658Z,10.00
2019-04-12T10:35:20.144Z,10.10
2019-04-12T10:37:51.916Z,10.10
2019-04-12T10:40:22.318Z,10.10
2019-04-12T10:42:51.042Z,10.00
2019-04-12T10:45:21.268Z,9.90
2019-04-12T10:47:57.544Z,9.80
2019-04-12T10:50:27.645Z,9.80
2019-04-12T10:53:00.719Z,9.70
2019-04-12T10:55:34.410Z,9.70
2019-04-12T10:58:02.933Z,9.70
2019-04-12T11:00:33.412Z,9.70
2019-04-12T11:03:02.215Z,9.60
2019-04-12T11:05:31.002Z,9.60
2019-04-12T11:07:59.432Z,9.70
2019-04-12T11:10:28.152Z,9.80
2019-04-12T11:12:56.936Z,9.80
2019-04-12T11:15:25.526Z,9.80
2019-04-12T11:17:53.977Z,9.80
2019-04-12T11:20:23.246Z,9.70
2019-04-12T11:22:52.518Z,9.80
2019-04-12T11:25:28.994Z,9.90
2019-04-12T11:27:51.714Z,9.90
2019-04-12T11:30:21.702Z,10.00
2019-04-12T11:32:50.437Z,10.00
2019-04-12T11:35:18.905Z,10.10
2019-04-12T11:37:47.702Z,10.00
2019-04-12T11:40:17.182Z,9.90
2019-04-12T11:42:45.698Z,10.00
2019-04-12T11:45:14.552Z,10.20
2019-04-12T11:47:43.452Z,10.40
2019-04-12T11:50:12.368Z,10.60
2019-04-12T11:52:41.084Z,10.90
2019-04-12T11:55:10.111Z,11.10
2019-04-12T11:57:39.140Z,12.00
2019-04-12T12:00:12.712Z,12.50
2019-04-12T12:02:42.893Z,12.50
2019-04-12T12:05:13.144Z,12.50
2019-04-12T12:07:50.089Z,12.30
2019-04-12T12:10:37.444Z,11.80
2019-04-12T12:13:10.590Z,11.50
2019-04-12T12:15:58.787Z,11.20
2019-04-12T12:18:32.781Z,11.00
2019-04-12T12:21:01.232Z,10.80
2019-04-12T12:23:29.998Z,10.50
2019-04-12T12:25:58.536Z,10.20
2019-04-12T12:28:27.000Z,10.10
2019-04-12T12:30:57.238Z,10.10
2019-04-12T12:33:25.752Z,10.10
2019-04-12T12:35:54.460Z,10.20
2019-04-12T12:38:23.300Z,10.20
2019-04-12T12:40:54.745Z,10.30
2019-04-12T12:43:23.446Z,10.40
2019-04-12T12:45:53.535Z,11.20
2019-04-12T12:48:22.365Z,12.10
2019-04-12T12:50:51.153Z,13.20
2019-04-12T12:53:19.722Z,13.70
2019-04-12T12:55:48.200Z,13.90
2019-04-12T12:58:17.372Z,13.90
2019-04-12T13:00:45.979Z,13.90
2019-04-12T13:03:16.380Z,13.80
2019-04-12T13:05:44.849Z,13.60
2019-04-12T13:08:13.338Z,13.40
2019-04-12T13:10:42.139Z,13.20
2019-04-12T13:13:13.839Z,13.20
2019-04-12T13:15:42.401Z,13.00
2019-04-12T13:18:11.111Z,12.80
2019-04-12T13:20:43.077Z,12.70
2019-04-12T13:23:11.977Z,12.60
2019-04-12T13:25:40.421Z,12.40
2019-04-12T13:28:09.580Z,12.30
2019-04-12T13:30:47.167Z,12.10
2019-04-12T13:33:35.741Z,12.10
2019-04-12T13:36:20.901Z,12.10
2019-04-12T13:38:54.081Z,12.00
2019-04-12T13:41:22.528Z,11.80
2019-04-12T13:43:53.518Z,11.70
2019-04-12T13:46:23.949Z,11.80
2019-04-12T13:48:52.492Z,12.20
2019-04-12T13:51:27.094Z,12.80
2019-04-12T13:53:51.397Z,13.30
2019-04-12T13:56:19.981Z,13.50
2019-04-12T13:58:49.995Z,13.30
2019-04-12T14:01:18.808Z,13.20
2019-04-12T14:03:47.589Z,13.30
2019-04-12T14:06:16.103Z,12.90
2019-04-12T14:08:46.097Z,12.70
2019-04-12T14:11:14.665Z,12.50
2019-04-12T14:13:43.407Z,12.20
2019-04-12T14:16:13.822Z,11.90
2019-04-12T14:18:42.276Z,11.70
2019-04-12T14:21:13.285Z,11.50
2019-04-12T14:23:42.025Z,11.30
2019-04-12T14:26:10.465Z,11.00
2019-04-12T14:28:40.337Z,10.90
2019-04-12T14:31:13.354Z,10.90
2019-04-12T14:33:59.233Z,10.80
2019-04-12T14:36:32.485Z,10.80
2019-04-12T14:39:01.075Z,10.70
2019-04-12T14:41:30.019Z,10.50
2019-04-12T14:44:13.847Z,10.40
2019-04-12T14:46:44.037Z,10.40
2019-04-12T14:49:12.524Z,10.30
2019-04-12T14:51:40.979Z,10.40
2019-04-12T14:54:09.481Z,10.30
2019-04-12T14:56:38.365Z,10.10
2019-04-12T14:59:07.216Z,10.20
2019-04-12T15:01:35.690Z,10.20
2019-04-12T15:04:04.446Z,10.10
2019-04-12T15:06:34.879Z,10.20
2019-04-12T15:09:06.251Z,10.20
2019-04-12T15:11:35.204Z,10.20
2019-04-12T15:14:05.190Z,10.20
2019-04-12T15:16:35.015Z,10.20
2019-04-12T15:19:06.627Z,10.40
2019-04-12T15:21:35.213Z,10.40
2019-04-12T15:24:03.709Z,10.40
2019-04-12T15:26:32.478Z,10.40
2019-04-12T15:29:01.342Z,10.40
2019-04-12T15:31:31.330Z,10.40
2019-04-12T15:33:59.849Z,10.40
2019-04-12T15:36:28.574Z,10.20
2019-04-12T15:38:57.194Z,10.10
2019-04-12T15:41:25.994Z,10.10
2019-04-12T15:43:54.445Z,10.00
2019-04-12T15:46:25.909Z,9.90
2019-04-12T15:48:54.450Z,10.10
2019-04-12T15:51:26.130Z,10.20
2019-04-12T15:53:55.149Z,10.40
2019-04-12T15:56:23.930Z,10.40
2019-04-12T15:58:52.382Z,10.50
2019-04-12T16:01:28.835Z,10.60
2019-04-12T16:04:00.670Z,10.70
2019-04-12T16:06:29.783Z,10.80
2019-04-12T16:09:17.572Z,10.80
2019-04-12T16:11:52.160Z,10.50
2019-04-12T16:14:23.344Z,10.20
2019-04-12T16:17:28.497Z,10.10
2019-04-12T16:19:58.016Z,10.00
2019-04-12T16:22:26.770Z,9.80
2019-04-12T16:24:55.479Z,9.70
2019-04-12T16:27:23.955Z,9.60
2019-04-12T16:30:00.022Z,9.50
2019-04-12T16:32:42.406Z,9.60
2019-04-12T16:35:18.819Z,9.50
2019-04-12T16:37:55.634Z,9.40
2019-04-12T16:40:25.860Z,9.20
2019-04-12T16:42:54.644Z,9.00
2019-04-12T16:45:23.202Z,9.00
2019-04-12T16:47:51.646Z,9.00
2019-04-12T16:50:20.094Z,9.00
2019-04-12T16:52:48.639Z,8.90
2019-04-12T16:55:17.201Z,8.90
2019-04-12T16:57:45.941Z,8.90
2019-04-12T17:00:16.149Z,9.00
2019-04-12T17:02:44.583Z,8.90
2019-04-12T17:05:14.582Z,8.80
2019-04-12T17:07:51.236Z,8.80
2019-04-12T17:10:13.801Z,8.80
2019-04-12T17:12:42.481Z,8.70
2019-04-12T17:15:11.297Z,8.70
2019-04-12T17:17:39.826Z,8.60
2019-04-12T17:20:08.405Z,8.50
2019-04-12T17:22:36.874Z,8.40
2019-04-12T17:25:06.894Z,8.30
2019-04-12T17:27:37.322Z,8.30
2019-04-12T17:30:07.791Z,8.30
2019-04-12T17:32:37.848Z,8.10
2019-04-12T17:35:09.014Z,7.90
2019-04-12T17:37:38.148Z,7.80
2019-04-12T17:40:07.223Z,7.80
2019-04-12T17:42:35.746Z,7.80
2019-04-12T17:45:07.145Z,7.80
2019-04-12T17:47:36.037Z,7.70
2019-04-12T17:50:10.253Z,7.70
2019-04-12T17:52:45.973Z,7.60
2019-04-12T17:55:16.399Z,7.70
2019-04-12T17:57:46.009Z,7.60
2019-04-12T18:00:28.625Z,7.60
2019-04-12T18:02:57.142Z,7.50
2019-04-12T18:05:25.913Z,7.40
2019-04-12T18:07:54.392Z,7.40
2019-04-12T18:10:23.159Z,7.40
2019-04-12T18:12:54.835Z,7.40
2019-04-12T18:15:23.287Z,7.20
2019-04-12T18:17:51.841Z,7.10
2019-04-12T18:20:20.935Z,7.10
2019-04-12T18:22:49.507Z,7.00
2019-04-12T18:25:17.949Z,7.00
2019-04-12T18:27:46.719Z,7.00
2019-04-12T18:30:15.689Z,6.90
2019-04-12T18:32:45.682Z,6.70
2019-04-12T18:35:14.570Z,6.80
2019-04-12T18:37:44.161Z,6.70
2019-04-12T18:40:14.499Z,6.70
2019-04-12T18:42:43.263Z,6.80
2019-04-12T18:45:12.623Z,7.00
2019-04-12T18:47:41.082Z,7.10
2019-04-12T18:50:10.140Z,7.20
2019-04-12T18:52:39.012Z,7.20
2019-04-12T18:55:08.071Z,7.20
2019-04-12T18:57:36.516Z,7.20
2019-04-12T19:00:10.507Z,7.20
2019-04-12T19:02:39.830Z,7.10
2019-04-12T19:05:09.491Z,7.00
2019-04-12T19:07:38.280Z,6.90
2019-04-12T19:10:07.429Z,6.90
2019-04-12T19:12:36.270Z,7.00
2019-04-12T19:15:08.002Z,7.00
2019-04-12T19:17:48.838Z,7.10
2019-04-12T19:20:18.441Z,7.00
2019-04-12T19:22:47.190Z,7.00
2019-04-12T19:25:16.355Z,7.00
2019-04-12T19:27:45.254Z,7.00
2019-04-12T19:30:17.715Z,7.00
2019-04-12T19:32:52.150Z,7.00
2019-04-12T19:35:25.266Z,7.00
2019-04-12T19:38:11.889Z,6.90
2019-04-12T19:40:40.627Z,6.80
2019-04-12T19:43:09.128Z,6.80
2019-04-12T19:45:37.878Z,6.80
2019-04-12T19:48:06.570Z,6.80
2019-04-12T19:50:36.102Z,6.80
2019-04-12T19:53:04.571Z,6.70
2019-04-12T19:55:33.365Z,6.70
2019-04-12T19:58:01.846Z,6.70
2019-04-12T20:00:30.419Z,6.50
2019-04-12T20:02:59.202Z,6.40
2019-04-12T20:05:27.764Z,6.30
2019-04-12T20:07:56.278Z,6.20
2019-04-12T20:10:24.721Z,6.10
2019-04-12T20:12:55.066Z,6.00
2019-04-12T20:15:23.628Z,5.90
2019-04-12T20:17:52.072Z,5.80
2019-04-12T20:20:20.593Z,5.70
2019-04-12T20:22:49.056Z,5.70
2019-04-12T20:25:18.548Z,5.70
2019-04-12T20:27:47.073Z,5.70
2019-04-12T20:30:19.992Z,5.70
2019-04-12T20:32:48.437Z,5.80
2019-04-12T20:35:16.892Z,5.70
2019-04-12T20:37:45.446Z,5.70
2019-04-12T20:40:14.040Z,5.60
2019-04-12T20:42:42.854Z,5.60
2019-04-12T20:45:11.739Z,5.60
2019-04-12T20:47:41.776Z,5.60
2019-04-12T20:50:13.214Z,5.50
2019-04-12T20:52:41.730Z,5.60
2019-04-12T20:55:10.652Z,5.60
2019-04-12T20:57:39.366Z,5.70
2019-04-12T21:00:07.988Z,5.70
2019-04-12T21:02:40.586Z,5.70
2019-04-12T21:05:07.301Z,5.60
2019-04-12T21:07:36.149Z,5.60
2019-04-12T21:10:05.360Z,5.60
2019-04-12T21:12:34.141Z,5.60
2019-04-12T21:15:02.944Z,5.60
2019-04-12T21:17:31.768Z,5.40
2019-04-12T21:20:00.249Z,5.40
2019-04-12T21:22:28.743Z,5.40
2019-04-12T21:24:57.244Z,5.30
2019-04-12T21:27:25.688Z,5.30
2019-04-12T21:29:54.196Z,5.30
2019-04-12T21:32:23.948Z,5.30
2019-04-12T21:34:52.832Z,5.20
2019-04-12T21:37:21.305Z,5.20
2019-04-12T21:39:49.750Z,5.10
2019-04-12T21:42:18.201Z,5.00
2019-04-12T21:44:46.788Z,5.00
2019-04-12T21:47:15.308Z,5.00
2019-04-12T21:49:45.249Z,5.00
2019-04-12T21:52:15.546Z,5.00
2019-04-12T21:54:43.988Z,5.00
2019-04-12T21:57:12.835Z,5.00
2019-04-12T21:59:41.344Z,5.00
2019-04-12T22:02:12.445Z,5.00
2019-04-12T22:04:41.390Z,4.90
2019-04-12T22:07:09.956Z,4.90
2019-04-12T22:09:40.729Z,4.90
2019-04-12T22:12:08.560Z,4.80
2019-04-12T22:14:37.318Z,4.80
2019-04-12T22:17:06.183Z,4.70
2019-04-12T22:19:37.990Z,4.70
2019-04-12T22:22:06.525Z,4.70
2019-04-12T22:24:34.993Z,4.60
2019-04-12T22:27:03.521Z,4.60
2019-04-12T22:29:32.079Z,4.50
2019-04-12T22:32:18.709Z,4.60
2019-04-12T22:34:57.617Z,4.60
2019-04-12T22:37:26.081Z,4.60
2019-04-12T22:39:54.546Z,4.50
2019-04-12T22:42:23.260Z,4.50
2019-04-12T22:44:53.590Z,4.50
2019-04-12T22:47:22.374Z,4.50
2019-04-12T22:49:51.154Z,4.40
2019-04-12T22:52:21.361Z,4.40
2019-04-12T22:54:50.449Z,4.30
2019-04-12T22:57:18.955Z,4.30
2019-04-12T22:59:47.725Z,4.20
2019-04-12T23:02:16.433Z,4.20
2019-04-12T23:04:46.833Z,4.10
2019-04-12T23:07:15.618Z,4.10
2019-04-12T23:09:44.413Z,4.10
2019-04-12T23:12:12.920Z,4.10
2019-04-12T23:14:41.519Z,4.00
2019-04-12T23:17:10.038Z,4.00
2019-04-12T23:19:38.604Z,3.90
2019-04-12T23:22:07.136Z,3.80
2019-04-12T23:24:36.398Z,3.80
2019-04-12T23:27:05.281Z,3.80
2019-04-12T23:29:33.794Z,3.80
2019-04-12T23:32:03.980Z,3.70
2019-04-12T23:34:37.812Z,3.80
2019-04-12T23:37:08.857Z,3.80
2019-04-12T23:39:37.576Z,3.70
2019-04-12T23:42:06.436Z,3.70
2019-04-12T23:44:35.210Z,3.70
2019-04-12T23:47:03.973Z,3.70
2019-04-12T23:49:32.462Z,3.70
2019-04-12T23:52:00.976Z,3.60
2019-04-12T23:54:31.893Z,3.60
2019-04-12T23:57:00.626Z,3.60
2019-04-12T23:59:29.078Z,3.60
